Time;durP1;ratioP1;P1;durP2;ratioP2;P2;SDS_P1;SDS_P2;PMS_P1;PMS_P2;Temp;Humidity;BMP_temperature;BMP_pressure;BME280_temperature;BME280_humidity;BME280_pressure;Samples;Min_cycle;Max_cycle;Signal;HPM_P1;HPM_P2
2023/06/22 00:00:45;;;;;;;2.00;1.30;;;;;;;20.62;92.86;99829.72;5093012;28;20032;-64
2023/06/22 00:03:15;;;;;;;0.50;0.50;;;;;;;20.59;93.13;99834.16;5093724;28;20280;-64
2023/06/22 00:05:44;;;;;;;3.90;2.28;;;;;;;20.53;92.56;99847.38;5093770;28;20047;-64
2023/06/22 00:08:13;;;;;;;1.10;1.02;;;;;;;20.42;92.62;99857.31;5093990;28;20043;-65
2023/06/22 00:10:43;;;;;;;2.45;1.98;;;;;;;20.40;92.70;99853.91;5093668;28;20040;-64
2023/06/22 00:13:13;;;;;;;1.63;1.02;;;;;;;20.43;92.75;99861.59;5094540;28;20123;-64
2023/06/22 00:15:43;;;;;;;1.08;0.95;;;;;;;20.36;92.70;99875.69;5093659;28;20494;-64
2023/06/22 00:18:13;;;;;;;10.35;3.15;;;;;;;20.16;92.60;99878.13;5093659;28;20066;-64
2023/06/22 00:20:45;;;;;;;5.40;1.77;;;;;;;20.06;92.93;99873.28;5093677;28;20059;-64
2023/06/22 00:23:15;;;;;;;0.63;0.63;;;;;;;20.03;93.30;99870.78;5093675;28;20067;-64
2023/06/22 00:25:44;;;;;;;2.58;1.65;;;;;;;19.99;93.57;99874.41;5094038;28;20385;-64
2023/06/22 00:28:13;;;;;;;1.13;0.83;;;;;;;19.96;93.74;99884.88;5093490;28;20161;-64
2023/06/22 00:30:42;;;;;;;1.45;1.35;;;;;;;19.96;94.07;99879.69;5092814;28;20123;-64
2023/06/22 00:33:11;;;;;;;2.23;1.73;;;;;;;19.98;93.96;99877.91;5094024;28;20044;-64
2023/06/22 00:35:43;;;;;;;2.42;1.50;;;;;;;20.00;94.35;99875.25;5093385;28;20143;-64
2023/06/22 00:38:12;;;;;;;0.52;0.52;;;;;;;20.00;94.72;99870.94;5093989;28;20430;-64
2023/06/22 00:40:43;;;;;;;0.52;0.47;;;;;;;20.12;94.73;99881.75;5093473;28;20558;-64
2023/06/22 00:43:12;;;;;;;0.60;0.60;;;;;;;20.13;94.65;99880.84;5075324;28;20051;-64
2023/06/22 00:45:41;;;;;;;0.60;0.60;;;;;;;20.10;94.82;99878.38;5093245;28;20101;-64
2023/06/22 00:48:11;;;;;;;1.05;0.82;;;;;;;20.11;95.15;99856.75;5097377;28;20048;-64
2023/06/22 00:50:41;;;;;;;1.08;0.70;;;;;;;20.22;95.00;99870.16;5097321;28;20531;-64
2023/06/22 00:53:11;;;;;;;0.57;0.57;;;;;;;20.11;94.77;99875.72;5096615;28;20028;-64
2023/06/22 00:55:45;;;;;;;0.88;0.85;;;;;;;20.08;94.99;99879.25;5097610;28;20131;-64
2023/06/22 00:58:14;;;;;;;0.40;0.40;;;;;;;20.13;94.98;99878.25;5096015;28;20044;-64
2023/06/22 01:00:43;;;;;;;3.97;1.35;;;;;;;20.17;94.98;99877.25;5095962;28;20040;-64
2023/06/22 01:03:12;;;;;;;0.75;0.75;;;;;;;20.00;94.73;99855.38;5095999;28;20056;-64
2023/06/22 01:05:41;;;;;;;2.63;1.38;;;;;;;20.01;94.87;99861.41;5095708;28;20527;-64
2023/06/22 01:08:25;;;;;;;0.80;0.80;;;;;;;20.15;95.08;99886.81;5096984;28;20048;-64
2023/06/22 01:11:01;;;;;;;2.25;1.15;;;;;;;20.22;94.98;99870.16;5096352;28;20055;-64
2023/06/22 01:13:40;;;;;;;1.33;1.15;;;;;;;20.24;94.75;99863.19;5096861;28;20051;-64
2023/06/22 01:16:15;;;;;;;15.20;2.15;;;;;;;20.18;94.56;99863.38;5095552;28;20131;-64
2023/06/22 01:18:45;;;;;;;0.73;0.45;;;;;;;20.12;94.55;99858.41;5095570;28;20043;-64
2023/06/22 01:21:19;;;;;;;0.85;0.68;;;;;;;19.94;94.39;99827.09;5097855;28;20047;-64
2023/06/22 01:24:03;;;;;;;0.45;0.45;;;;;;;20.06;94.40;99855.16;5096604;28;20517;-64
2023/06/22 01:26:43;;;;;;;0.93;0.80;;;;;;;19.96;93.95;99853.78;5096636;28;20040;-64
2023/06/22 01:29:16;;;;;;;2.65;1.52;;;;;;;19.93;94.09;99853.91;5096536;28;20050;-64
2023/06/22 01:31:46;;;;;;;0.93;0.80;;;;;;;19.93;94.34;99853.06;5095667;28;20131;-64
2023/06/22 01:34:18;;;;;;;1.83;0.90;;;;;;;19.92;94.45;99856.53;5095283;28;20119;-64
2023/06/22 01:36:47;;;;;;;1.08;0.93;;;;;;;19.88;94.27;99863.59;5096747;28;20131;-64
2023/06/22 01:39:18;;;;;;;0.80;0.73;;;;;;;19.83;94.15;99852.53;5095253;28;20513;-65
2023/06/22 01:41:49;;;;;;;0.55;0.50;;;;;;;19.64;94.20;99820.44;5095509;28;20048;-64
2023/06/22 01:44:20;;;;;;;0.50;0.50;;;;;;;19.90;94.38;99853.16;5096335;28;20055;-64
2023/06/22 01:46:51;;;;;;;0.80;0.80;;;;;;;19.98;94.43;99857.19;5095046;28;20047;-64
2023/06/22 01:49:22;;;;;;;0.73;0.73;;;;;;;20.01;94.31;99862.25;5096166;28;20076;-64
2023/06/22 01:51:51;;;;;;;3.53;2.05;;;;;;;19.99;94.44;99853.69;5096204;28;20040;-64
2023/06/22 01:54:20;;;;;;;0.90;0.88;;;;;;;20.06;94.39;99855.16;5096081;28;20093;-64
2023/06/22 01:56:49;;;;;;;0.68;0.57;;;;;;;20.08;94.48;99857.69;5094818;28;20086;-65
2023/06/22 01:59:39;;;;;;;0.65;0.65;;;;;;;20.10;94.29;99860.22;5093952;28;20036;-65
2023/06/22 02:02:10;;;;;;;0.80;0.80;;;;;;;20.11;94.48;99861.94;5094834;28;20406;-64
2023/06/22 02:04:47;;;;;;;1.23;1.13;;;;;;;20.08;94.40;99862.03;5096130;28;20048;-64
2023/06/22 02:07:19;;;;;;;0.30;0.30;;;;;;;20.07;94.41;99866.38;5096050;28;20549;-64
2023/06/22 02:09:51;;;;;;;1.58;0.93;;;;;;;19.95;94.29;99857.28;5096109;28;20075;-64
2023/06/22 02:12:25;;;;;;;1.90;1.17;;;;;;;20.03;94.08;99868.22;5095843;28;20486;-64
2023/06/22 02:14:56;;;;;;;8.15;2.10;;;;;;;19.92;94.11;99852.22;5094580;28;20120;-64
2023/06/22 02:17:28;;;;;;;1.77;1.23;;;;;;;19.78;94.14;99841.50;5094492;28;20068;-64
2023/06/22 02:19:58;;;;;;;1.38;1.20;;;;;;;19.96;93.93;99869.34;5095575;28;20560;-64
2023/06/22 02:22:27;;;;;;;0.47;0.47;;;;;;;19.94;93.84;99871.13;5094369;28;20493;-64
2023/06/22 02:24:57;;;;;;;2.47;1.97;;;;;;;19.86;93.61;99861.97;5095742;28;20044;-64
2023/06/22 02:27:26;;;;;;;0.75;0.75;;;;;;;19.73;93.55;99856.34;5095756;28;20273;-64
2023/06/22 02:29:56;;;;;;;0.80;0.80;;;;;;;19.65;93.65;99868.72;5095622;28;20052;-64
2023/06/22 02:32:25;;;;;;;6.93;1.08;;;;;;;19.67;93.76;99872.13;5094158;28;20059;-65
2023/06/22 02:34:54;;;;;;;3.20;0.88;;;;;;;19.62;93.67;99866.25;5095224;28;20048;-64
2023/06/22 02:37:29;;;;;;;1.25;1.13;;;;;;;19.48;93.51;99860.72;5095244;28;20127;-64
2023/06/22 02:39:58;;;;;;;0.40;0.40;;;;;;;19.36;93.70;99866.28;5095060;28;20502;-64
2023/06/22 02:42:27;;;;;;;0.50;0.50;;;;;;;19.34;93.70;99852.50;5095911;28;20385;-64
2023/06/22 02:44:58;;;;;;;24.42;1.95;;;;;;;19.18;93.44;99825.44;5093873;28;20533;-64
2023/06/22 02:47:27;;;;;;;0.57;0.57;;;;;;;19.37;93.65;99852.44;5095310;28;20130;-64
2023/06/22 02:49:56;;;;;;;2.40;1.42;;;;;;;19.33;93.45;99856.00;5093727;28;20072;-64
2023/06/22 02:52:26;;;;;;;0.40;0.40;;;;;;;19.25;93.27;99851.06;5095526;28;20051;-65
2023/06/22 02:54:55;;;;;;;1.73;1.38;;;;;;;19.25;93.66;99837.28;5093626;28;20043;-64
2023/06/22 02:57:24;;;;;;;13.77;1.58;;;;;;;19.27;93.74;99825.13;5093662;28;20387;-64
2023/06/22 02:59:53;;;;;;;1.65;1.10;;;;;;;19.42;93.70;99850.53;5093548;28;20066;-64
2023/06/22 03:02:26;;;;;;;12.70;1.40;;;;;;;19.39;93.74;99842.88;5093684;28;20509;-64
2023/06/22 03:04:55;;;;;;;1.00;0.90;;;;;;;19.46;93.84;99852.13;5094829;28;20127;-65
2023/06/22 03:07:24;;;;;;;0.55;0.55;;;;;;;19.45;93.82;99859.94;5095168;28;20557;-65
2023/06/22 03:09:56;;;;;;;1.00;0.93;;;;;;;19.39;93.72;99856.66;5094549;28;20055;-65
2023/06/22 03:12:25;;;;;;;0.70;0.70;;;;;;;19.37;93.90;99862.78;5093713;28;20044;-65
2023/06/22 03:14:56;;;;;;;0.55;0.55;;;;;;;19.26;93.73;99851.94;5094524;28;20072;-65
2023/06/22 03:17:27;;;;;;;0.52;0.52;;;;;;;19.33;93.98;99853.41;5076873;28;20105;-65
2023/06/22 03:19:57;;;;;;;1.60;1.25;;;;;;;19.43;93.91;99852.25;5094403;28;20047;-65
2023/06/22 03:22:27;;;;;;;0.80;0.80;;;;;;;19.47;93.89;99853.81;5094326;28;20119;-65
2023/06/22 03:24:56;;;;;;;0.80;0.77;;;;;;;19.50;93.72;99858.06;5094213;28;20040;-65
2023/06/22 03:27:25;;;;;;;1.77;1.40;;;;;;;19.49;93.74;99859.78;5093094;28;20413;-65
2023/06/22 03:29:54;;;;;;;0.95;0.90;;;;;;;19.48;93.68;99860.72;5094155;28;20044;-65
2023/06/22 03:32:24;;;;;;;1.15;1.05;;;;;;;19.48;93.89;99860.72;5092962;28;20052;-65
2023/06/22 03:34:58;;;;;;;2.63;0.73;;;;;;;19.52;93.67;99862.28;5092995;28;20040;-65
2023/06/22 03:37:29;;;;;;;0.63;0.63;;;;;;;19.35;93.49;99844.69;5094476;28;20052;-65
2023/06/22 03:39:57;;;;;;;;;;;;;;;19.53;93.41;99874.31;5094284;28;20063;-65
2023/06/22 03:42:27;;;;;;;0.93;0.68;;;;;;;19.53;93.51;99876.91;5093080;28;19920;-65
2023/06/22 03:44:56;;;;;;;1.17;0.98;;;;;;;19.57;93.61;99880.25;5092787;28;20044;-65
2023/06/22 03:47:26;;;;;;;7.22;1.90;;;;;;;19.56;93.50;99879.41;5094613;28;20375;-65
2023/06/22 03:49:57;;;;;;;0.70;0.70;;;;;;;19.57;93.43;99878.50;5093005;28;20040;-65
2023/06/22 03:52:26;;;;;;;2.38;1.25;;;;;;;19.58;93.37;99879.38;5093854;28;20052;-65
2023/06/22 03:54:55;;;;;;;1.83;1.70;;;;;;;19.43;93.23;99859.16;5094068;28;20036;-65
2023/06/22 03:57:24;;;;;;;1.30;1.10;;;;;;;19.64;93.30;99887.75;5094112;28;20036;-65
2023/06/22 03:59:53;;;;;;;1.88;1.65;;;;;;;19.68;93.04;99897.09;5093780;28;20040;-65
2023/06/22 04:02:22;;;;;;;3.53;2.08;;;;;;;19.67;92.85;99890.25;5093973;28;20066;-65
2023/06/22 04:04:50;;;;;;;0.50;0.50;;;;;;;19.65;92.85;99888.63;5092646;28;20113;-65
2023/06/22 04:07:21;;;;;;;1.38;0.82;;;;;;;19.72;92.90;99883.19;5094044;28;20044;-65
2023/06/22 04:09:51;;;;;;;1.48;1.27;;;;;;;19.82;92.93;99892.28;5093800;28;20044;-65
2023/06/22 04:12:20;;;;;;;0.80;0.80;;;;;;;19.85;92.76;99897.38;5093612;28;20048;-65
2023/06/22 04:14:49;;;;;;;1.58;0.95;;;;;;;19.81;92.82;99890.63;5093661;28;20097;-65
2023/06/22 04:17:19;;;;;;;1.75;1.15;;;;;;;19.72;93.23;99859.88;5093562;28;20036;-65
2023/06/22 04:19:48;;;;;;;1.20;0.95;;;;;;;19.97;93.17;99886.59;5093652;28;20052;-65
2023/06/22 04:22:17;;;;;;;1.50;1.27;;;;;;;19.98;92.95;99888.28;5096130;28;20035;-65
2023/06/22 04:24:47;;;;;;;1.35;1.17;;;;;;;19.99;93.02;99894.28;5097934;28;20370;-65
2023/06/22 04:27:16;;;;;;;0.90;0.90;;;;;;;19.98;93.54;99888.28;5097702;28;20073;-64
2023/06/22 04:29:48;;;;;;;1.30;1.20;;;;;;;19.96;92.93;99884.06;5097879;28;20040;-65
2023/06/22 04:32:17;;;;;;;1.73;1.63;;;;;;;19.93;93.17;99884.16;5097576;28;20287;-65
2023/06/22 04:34:46;;;;;;;1.63;1.52;;;;;;;19.95;93.51;99890.97;5097878;28;20043;-64
2023/06/22 04:37:15;;;;;;;0.88;0.88;;;;;;;19.89;93.72;99892.94;5097842;28;20432;-65
2023/06/22 04:39:45;;;;;;;2.00;1.20;;;;;;;19.97;93.99;99890.91;5097273;28;20059;-65
2023/06/22 04:42:15;;;;;;;0.82;0.77;;;;;;;20.14;94.15;99903.25;5097767;28;20509;-65
2023/06/22 04:44:44;;;;;;;3.10;1.42;;;;;;;20.19;94.01;99904.81;5097245;28;20398;-66
2023/06/22 04:47:13;;;;;;;2.92;1.30;;;;;;;20.18;93.95;99905.69;5097623;28;20478;-65
2023/06/22 04:49:43;;;;;;;2.03;1.83;;;;;;;20.22;93.81;99914.22;5097380;28;20036;-65
2023/06/22 04:52:13;;;;;;;1.73;1.63;;;;;;;20.33;93.74;99909.50;5097302;28;20063;-65
2023/06/22 04:54:47;;;;;;;1.65;1.48;;;;;;;20.40;93.58;99898.00;5097162;28;20067;-65
2023/06/22 04:57:18;;;;;;;1.17;1.05;;;;;;;20.49;93.45;99906.28;5097271;28;20052;-65
2023/06/22 04:59:47;;;;;;;1.45;1.00;;;;;;;20.44;93.20;99909.97;5097068;28;20123;-65
2023/06/22 05:02:16;;;;;;;2.42;1.70;;;;;;;20.47;93.43;99912.44;5097293;28;20074;-65
2023/06/22 05:04:45;;;;;;;1.60;1.50;;;;;;;20.53;93.04;99915.66;5096896;28;20082;-66
2023/06/22 05:07:14;;;;;;;2.67;1.58;;;;;;;20.47;92.89;99909.84;5096952;28;20105;-65
2023/06/22 05:09:43;;;;;;;4.03;3.05;;;;;;;20.46;92.85;99905.56;5096889;28;20043;-66
2023/06/22 05:12:12;;;;;;;0.90;0.90;;;;;;;20.44;92.61;99907.38;5096840;28;20050;-65
2023/06/22 05:14:42;;;;;;;1.00;0.95;;;;;;;20.32;92.50;99913.00;5097026;28;20557;-65
2023/06/22 05:17:13;;;;;;;1.90;1.67;;;;;;;20.40;92.81;99916.16;5097113;28;20132;-66
2023/06/22 05:19:44;;;;;;;3.03;2.00;;;;;;;20.45;93.02;99909.06;5096830;28;20055;-66
2023/06/22 05:22:14;;;;;;;2.38;2.05;;;;;;;20.52;93.08;99915.69;5096731;28;20052;-66
2023/06/22 05:24:43;;;;;;;1.52;1.27;;;;;;;20.60;93.20;99909.34;5096425;28;20084;-66
2023/06/22 05:27:12;;;;;;;2.50;2.15;;;;;;;20.66;93.07;99898.72;5096907;28;20075;-66
2023/06/22 05:29:43;;;;;;;4.10;2.25;;;;;;;20.68;93.16;99901.28;5096853;28;20393;-66
2023/06/22 05:32:12;;;;;;;1.65;1.50;;;;;;;20.80;93.06;99903.38;5096469;28;20070;-66
2023/06/22 05:34:41;;;;;;;0.80;0.80;;;;;;;20.90;93.08;99907.28;5096423;28;20079;-66
2023/06/22 05:37:10;;;;;;;2.03;1.45;;;;;;;20.97;93.00;99908.75;5095170;28;20047;-66
2023/06/22 05:39:39;;;;;;;1.95;1.33;;;;;;;21.15;93.06;99895.09;5094944;28;20055;-66
2023/06/22 05:42:09;;;;;;;3.40;2.55;;;;;;;21.35;92.80;99895.09;5096291;28;20043;-66
2023/06/22 05:44:40;;;;;;;1.88;1.25;;;;;;;21.50;92.72;99898.00;5096485;28;20497;-66
2023/06/22 05:47:11;;;;;;;2.50;2.28;;;;;;;21.64;92.06;99900.84;5095303;28;20090;-66
2023/06/22 05:49:40;;;;;;;2.80;1.42;;;;;;;21.76;91.74;99900.34;5096177;28;20047;-67
2023/06/22 05:52:09;;;;;;;5.07;1.60;;;;;;;21.83;91.06;99901.75;5096134;28;20055;-66
2023/06/22 05:54:38;;;;;;;1.50;1.27;;;;;;;21.95;90.73;99906.47;5094838;28;20063;-66
2023/06/22 05:57:07;;;;;;;0.88;0.82;;;;;;;22.08;90.10;99899.78;5094587;28;20039;-66
2023/06/22 05:59:36;;;;;;;1.33;1.17;;;;;;;22.20;89.57;99901.00;5099881;28;20389;-66
2023/06/22 06:02:06;;;;;;;1.33;0.90;;;;;;;22.23;88.70;99900.88;5096193;28;20559;-65
2023/06/22 06:04:37;;;;;;;1.00;0.82;;;;;;;22.27;88.35;99903.25;5095896;28;20056;-66
2023/06/22 06:07:06;;;;;;;0.80;0.80;;;;;;;22.36;87.99;99897.66;5096039;28;20490;-66
2023/06/22 06:09:34;;;;;;;1.02;0.95;;;;;;;22.36;87.27;99897.66;5095999;28;20036;-65
2023/06/22 06:12:04;;;;;;;1.05;0.95;;;;;;;22.35;87.30;99901.19;5095760;28;20044;-65
2023/06/22 06:14:33;;;;;;;1.17;1.05;;;;;;;22.36;86.87;99902.84;5095909;28;20130;-65
2023/06/22 06:17:02;;;;;;;6.45;2.83;;;;;;;22.33;86.83;99903.00;5095570;28;20041;-66
2023/06/22 06:19:31;;;;;;;2.67;1.60;;;;;;;22.41;86.82;99900.88;5095479;28;20044;-65
2023/06/22 06:22:01;;;;;;;2.03;1.40;;;;;;;22.59;86.69;99900.06;5094760;28;20036;-67
2023/06/22 06:24:30;;;;;;;1.95;1.50;;;;;;;22.74;86.26;99905.50;5095492;28;20048;-65
2023/06/22 06:26:58;;;;;;;1.02;0.95;;;;;;;22.75;85.82;99909.78;5096495;28;20043;-65
2023/06/22 06:29:27;;;;;;;1.05;0.95;;;;;;;22.79;85.61;99903.53;5097951;28;20031;-66
2023/06/22 06:31:56;;;;;;;1.98;1.75;;;;;;;22.91;85.01;99916.81;5113817;28;20051;-66
2023/06/22 06:34:25;;;;;;;1.05;1.00;;;;;;;22.99;84.57;99919.88;5095538;28;20123;-66
2023/06/22 06:36:55;;;;;;;1.27;1.17;;;;;;;23.10;84.12;99916.78;5095008;28;20494;-66
2023/06/22 06:39:25;;;;;;;2.40;2.20;;;;;;;23.27;83.34;99919.41;5095144;28;20044;-65
2023/06/22 06:41:54;;;;;;;2.60;1.63;;;;;;;23.38;82.92;99919.75;5095436;28;20040;-65
2023/06/22 06:44:23;;;;;;;1.15;0.63;;;;;;;23.37;82.46;99919.84;5113256;28;20036;-65
2023/06/22 06:46:54;;;;;;;1.25;1.08;;;;;;;23.42;82.04;99912.66;5100024;28;20093;-66
2023/06/22 06:49:24;;;;;;;1.02;0.93;;;;;;;23.50;81.85;99916.53;5095377;28;20048;-66
2023/06/22 06:51:55;;;;;;;2.60;1.02;;;;;;;23.55;81.20;99904.13;5105003;28;20089;-66
2023/06/22 06:54:27;;;;;;;1.13;1.00;;;;;;;23.66;80.57;99916.63;5095153;28;20050;-66
2023/06/22 06:56:56;;;;;;;1.42;0.98;;;;;;;23.71;80.43;99912.84;5094789;28;20040;-66
2023/06/22 06:59:25;;;;;;;1.75;1.45;;;;;;;23.82;80.30;99928.81;5094397;28;20137;-66
2023/06/22 07:01:54;;;;;;;4.05;2.50;;;;;;;23.92;79.78;99922.19;5094771;28;20143;-66
2023/06/22 07:04:23;;;;;;;1.23;0.98;;;;;;;23.93;79.53;99923.88;5094675;28;20109;-66
2023/06/22 07:06:52;;;;;;;0.60;0.60;;;;;;;24.05;79.71;99924.16;5094861;28;20394;-67
2023/06/22 07:09:21;;;;;;;4.47;1.88;;;;;;;24.02;79.51;99926.00;5093982;28;20367;-66
2023/06/22 07:11:51;;;;;;;2.58;1.23;;;;;;;24.12;79.08;99920.34;5095422;28;20040;-66
2023/06/22 07:14:20;;;;;;;1.33;1.10;;;;;;;24.14;78.46;99908.09;5093955;28;20044;-67
2023/06/22 07:16:49;;;;;;;10.77;1.48;;;;;;;24.17;77.77;99894.84;5105510;28;20062;-66
2023/06/22 07:19:25;;;;;;;3.53;1.63;;;;;;;24.14;77.47;99897.66;5124130;27;20039;-67
2023/06/22 07:21:54;;;;;;;1.58;1.35;;;;;;;24.14;76.98;99897.66;5097282;28;20044;-66
2023/06/22 07:24:23;;;;;;;1.52;1.20;;;;;;;24.19;76.67;99895.59;5094224;28;20052;-66
2023/06/22 07:26:54;;;;;;;2.55;1.13;;;;;;;24.21;76.65;99896.41;5094544;28;20424;-66
2023/06/22 07:29:23;;;;;;;1.13;0.80;;;;;;;24.33;76.64;99895.75;5094189;28;20055;-65
2023/06/22 07:31:52;;;;;;;1.60;1.23;;;;;;;24.46;76.56;99905.44;5096359;28;20050;-66
2023/06/22 07:34:21;;;;;;;1.70;1.40;;;;;;;24.50;76.58;99900.88;5094141;28;20137;-66
2023/06/22 07:36:50;;;;;;;1.00;0.90;;;;;;;24.57;76.36;99899.66;5094445;28;20127;-66
2023/06/22 07:39:25;;;;;;;1.08;0.98;;;;;;;24.69;75.91;99891.13;5093760;28;20051;-66
2023/06/22 07:41:55;;;;;;;1.52;1.33;;;;;;;24.81;75.22;99885.25;5098066;28;20036;-66
2023/06/22 07:44:25;;;;;;;2.15;1.88;;;;;;;24.86;74.65;99851.06;5113281;28;20488;-66
2023/06/22 07:46:54;;;;;;;1.20;1.10;;;;;;;25.16;73.81;99876.28;5114246;28;20050;-67
2023/06/22 07:49:23;;;;;;;2.05;1.67;;;;;;;25.23;72.94;99876.75;5109261;28;20053;-67
2023/06/22 07:51:51;;;;;;;2.33;1.63;;;;;;;25.26;72.42;99882.69;5098359;28;20526;-66
2023/06/22 07:54:21;;;;;;;2.90;1.42;;;;;;;25.29;72.08;99877.25;5094047;28;20043;-66
2023/06/22 07:56:50;;;;;;;2.55;1.50;;;;;;;25.41;71.70;99885.31;5093227;28;20067;-66
2023/06/22 07:59:20;;;;;;;1.65;1.42;;;;;;;25.52;70.66;99883.78;5094000;28;20052;-66
2023/06/22 08:01:50;;;;;;;1.80;1.00;;;;;;;25.62;70.58;99873.63;5093664;28;20405;-66
2023/06/22 08:04:18;;;;;;;0.68;0.68;;;;;;;25.79;70.48;99869.09;5093691;28;20054;-65
2023/06/22 08:06:48;;;;;;;0.90;0.80;;;;;;;25.96;70.18;99862.84;5092985;28;20044;-65
2023/06/22 08:09:17;;;;;;;0.95;0.85;;;;;;;25.99;69.28;99867.88;5093937;28;20148;-65
2023/06/22 08:11:46;;;;;;;1.42;0.85;;;;;;;25.98;68.52;99860.97;5107989;28;20054;-65
2023/06/22 08:14:15;;;;;;;1.15;1.05;;;;;;;26.04;67.81;99864.97;5114005;28;20040;-66
2023/06/22 08:16:45;;;;;;;1.55;1.00;;;;;;;26.16;67.62;99854.63;5095224;28;20044;-65
2023/06/22 08:19:14;;;;;;;2.50;2.28;;;;;;;26.29;67.89;99859.94;5093531;28;20101;-65
2023/06/22 08:21:43;;;;;;;2.60;1.33;;;;;;;26.43;67.90;99858.16;5108683;28;20114;-65
2023/06/22 08:24:12;;;;;;;5.15;2.85;;;;;;;26.48;68.15;99863.94;5093549;28;20119;-65
2023/06/22 08:26:41;;;;;;;;;;;;;;;26.51;68.83;99866.34;5094498;28;20040;-66
2023/06/22 08:29:10;;;;;;;1.60;1.23;;;;;;;26.56;68.46;99859.03;5093421;28;19927;-65
2023/06/22 08:31:39;;;;;;;2.17;0.82;;;;;;;26.72;67.50;99868.56;5108786;28;20101;-65
2023/06/22 08:34:10;;;;;;;1.83;1.10;;;;;;;26.89;67.06;99865.72;5114134;28;20123;-66
2023/06/22 08:36:41;;;;;;;1.83;1.05;;;;;;;26.92;66.54;99868.16;5114034;28;20043;-66
2023/06/22 08:39:10;;;;;;;0.60;0.60;;;;;;;27.03;66.50;99863.03;5113540;28;20044;-65
2023/06/22 08:41:39;;;;;;;1.05;0.85;;;;;;;27.15;67.04;99872.72;5102358;28;20040;-65
2023/06/22 08:44:08;;;;;;;0.77;0.77;;;;;;;27.15;66.25;99867.47;5092718;28;20044;-65
2023/06/22 08:46:38;;;;;;;1.35;0.98;;;;;;;27.23;65.59;99865.22;5093128;28;20040;-66
2023/06/22 08:49:10;;;;;;;1.00;0.90;;;;;;;27.27;64.96;99864.06;5093909;28;20044;-65
2023/06/22 08:51:39;;;;;;;1.35;0.95;;;;;;;27.36;65.16;99859.97;5110035;28;20039;-66
2023/06/22 08:54:08;;;;;;;1.08;0.85;;;;;;;27.38;64.62;99858.16;5113820;28;20127;-65
2023/06/22 08:56:37;;;;;;;1.02;0.93;;;;;;;27.44;63.98;99852.47;5113550;28;20055;-65
2023/06/22 08:59:07;;;;;;;;;;;;;;;27.57;63.97;99846.28;5113978;28;20162;-66
2023/06/22 09:01:36;;;;;;;1.38;0.88;;;;;;;27.77;64.60;99853.66;5112303;28;20409;-65
2023/06/22 09:04:07;;;;;;;1.60;1.40;;;;;;;27.96;65.35;99845.34;5114000;28;20119;-66
2023/06/22 09:06:44;;;;;;;1.23;1.13;;;;;;;28.10;65.40;99841.81;5113688;28;20440;-66
2023/06/22 09:09:14;;;;;;;0.90;0.85;;;;;;;28.06;64.41;99829.81;5109611;28;20379;-66
2023/06/22 09:11:43;;;;;;;0.95;0.90;;;;;;;28.24;64.07;99839.03;5097433;28;20064;-66
2023/06/22 09:14:12;;;;;;;3.10;2.08;;;;;;;28.49;64.28;99844.22;5096867;28;20044;-66
2023/06/22 09:16:41;;;;;;;0.88;0.80;;;;;;;28.53;62.99;99845.66;5096895;28;20046;-65
2023/06/22 09:19:09;;;;;;;7.38;0.98;;;;;;;28.49;62.42;99841.59;5097051;28;20156;-66
2023/06/22 09:21:40;;;;;;;0.73;0.57;;;;;;;28.53;61.97;99825.47;5096949;28;20066;-65
2023/06/22 09:24:09;;;;;;;3.03;1.75;;;;;;;28.58;60.89;99833.03;5096742;28;20044;-65
2023/06/22 09:26:38;;;;;;;1.40;1.30;;;;;;;28.54;59.51;99826.34;5096601;28;20044;-66
2023/06/22 09:29:07;;;;;;;1.20;1.05;;;;;;;28.55;58.49;99828.03;5096527;28;20076;-66
2023/06/22 09:31:36;;;;;;;1.10;0.98;;;;;;;28.66;58.10;99809.72;5095588;28;20097;-65
2023/06/22 09:34:05;;;;;;;1.90;1.25;;;;;;;28.61;57.61;99814.47;5096452;28;20119;-66
2023/06/22 09:36:33;;;;;;;0.77;0.77;;;;;;;28.71;57.77;99807.59;5096471;28;20036;-66
2023/06/22 09:39:06;;;;;;;1.10;1.00;;;;;;;28.80;58.35;99809.53;5096175;28;20056;-66
2023/06/22 09:41:35;;;;;;;2.65;1.33;;;;;;;28.75;58.67;99787.16;5109825;28;20044;-66
2023/06/22 09:44:04;;;;;;;2.47;1.58;;;;;;;29.16;59.28;99814.69;5117265;28;20043;-66
2023/06/22 09:46:33;;;;;;;;;;;;;;;29.13;58.64;99820.16;5117013;28;20063;-66
2023/06/22 09:49:02;;;;;;;1.15;0.90;;;;;;;29.19;59.06;99814.50;5115582;28;20357;-66
2023/06/22 09:51:31;;;;;;;1.20;0.85;;;;;;;29.35;59.88;99821.22;5116710;28;20064;-66
2023/06/22 09:53:59;;;;;;;1.48;1.17;;;;;;;29.19;58.68;99819.75;5116985;28;20040;-66
2023/06/22 09:56:31;;;;;;;;;;;;;;;29.23;58.10;99814.28;5116835;28;20051;-66
2023/06/22 09:59:00;;;;;;;1.23;0.98;;;;;;;29.28;57.50;99817.38;5115385;28;20323;-66
2023/06/22 10:01:45;;;;;;;4.15;1.23;;;;;;;29.41;58.18;99812.88;5116692;28;20109;-66
2023/06/22 10:04:14;;;;;;;2.92;1.08;;;;;;;29.55;58.80;99807.38;5116210;28;20088;-65
2023/06/22 10:06:43;;;;;;;;;;;;;;;29.66;59.35;99813.50;5116633;28;20043;-66
2023/06/22 10:09:12;;;;;;;1.73;1.30;;;;;;;29.61;58.55;99805.13;5114845;28;20418;-66
2023/06/22 10:11:45;;;;;;;0.95;0.93;;;;;;;29.54;57.76;99803.91;5116108;28;20040;-66
2023/06/22 10:14:14;;;;;;;0.80;0.75;;;;;;;29.60;57.27;99798.19;5116431;28;20062;-65
2023/06/22 10:16:43;;;;;;;7.13;1.80;;;;;;;29.61;56.23;99799.03;5114738;28;20048;-65
2023/06/22 10:19:13;;;;;;;1.33;1.13;;;;;;;29.82;56.68;99803.50;5115178;28;20114;-66
2023/06/22 10:21:41;;;;;;;;;;;;;;;29.94;58.54;99801.69;5116368;28;20048;-66
2023/06/22 10:24:10;;;;;;;5.07;1.02;;;;;;;30.00;59.06;99795.09;5114856;28;19926;-66
2023/06/22 10:26:39;;;;;;;1.08;0.98;;;;;;;30.06;58.30;99798.09;5098564;28;20126;-66
2023/06/22 10:29:09;;;;;;;0.93;0.88;;;;;;;30.03;56.06;99792.22;5110921;28;20375;-66
2023/06/22 10:31:45;;;;;;;1.08;0.98;;;;;;;29.94;55.03;99785.91;5109710;28;20123;-67
2023/06/22 10:34:14;;;;;;;1.90;0.75;;;;;;;30.12;55.35;99792.34;5092642;28;20157;-69
2023/06/22 10:36:43;;;;;;;1.65;0.70;;;;;;;30.23;57.02;99797.59;5109983;28;20054;-67
2023/06/22 10:39:11;;;;;;;4.40;2.15;;;;;;;30.03;57.55;99766.75;5115244;28;20040;-66
2023/06/22 10:41:40;;;;;;;;;;;;;;;30.21;58.04;99786.34;5115978;28;20088;-65
2023/06/22 10:44:10;;;;;;;2.10;0.93;;;;;;;30.39;58.39;99777.00;5115368;28;20002;-65
2023/06/22 10:46:39;;;;;;;0.98;0.90;;;;;;;30.48;58.24;99772.75;5102643;28;20040;-66
2023/06/22 10:49:08;;;;;;;1.48;0.98;;;;;;;30.50;58.59;99776.94;5111109;28;20050;-66
2023/06/22 10:51:37;;;;;;;;;;;;;;;30.72;58.95;99777.81;5115679;28;20048;-67
2023/06/22 10:54:06;;;;;;;1.23;0.82;;;;;;;30.60;57.36;99782.31;5115609;28;19920;-66
2023/06/22 10:56:35;;;;;;;1.80;1.25;;;;;;;30.55;56.55;99775.75;5114269;28;20507;-66
2023/06/22 10:59:03;;;;;;;1.80;0.85;;;;;;;30.50;56.60;99763.78;5115241;28;20055;-66
2023/06/22 11:01:34;;;;;;;3.00;1.73;;;;;;;30.55;56.27;99765.22;5103019;28;20126;-66
2023/06/22 11:04:05;;;;;;;0.70;0.70;;;;;;;30.62;56.56;99767.19;5107470;28;20097;-66
2023/06/22 11:06:34;;;;;;;1.27;0.82;;;;;;;30.75;57.07;99772.31;5094200;28;20543;-66
2023/06/22 11:09:05;;;;;;;1.58;1.15;;;;;;;30.77;57.32;99770.38;5094344;28;20050;-67
2023/06/22 11:11:54;;;;;;;0.40;0.40;;;;;;;30.75;57.67;99748.59;5097671;28;20040;-66
2023/06/22 11:14:23;;;;;;;1.30;1.20;;;;;;;30.98;57.38;99768.63;5093930;28;20535;-66
2023/06/22 11:16:53;;;;;;;1.60;1.42;;;;;;;31.08;57.45;99765.09;5095339;28;20055;-66
2023/06/22 11:19:22;;;;;;;0.73;0.68;;;;;;;31.08;57.01;99754.56;5094832;28;20119;-67
2023/06/22 11:21:51;;;;;;;0.68;0.65;;;;;;;31.00;57.28;99756.97;5096930;28;20042;-65
2023/06/22 11:24:20;;;;;;;;;;;;;;;31.09;56.95;99756.22;5115114;28;20126;-66
2023/06/22 11:26:48;;;;;;;0.75;0.73;;;;;;;30.87;56.06;99752.84;5114648;28;19927;-67
2023/06/22 11:29:17;;;;;;;;;;;;;;;30.96;55.72;99749.47;5115148;28;20235;-66
2023/06/22 11:32:07;;;;;;;1.00;0.90;;;;;;;31.04;55.54;99754.94;5107207;28;19927;-67
2023/06/22 11:34:41;;;;;;;0.77;0.77;;;;;;;31.30;57.27;99756.22;5097329;28;20039;-67
2023/06/22 11:37:10;;;;;;;1.13;1.02;;;;;;;31.28;55.82;99754.66;5098376;28;20393;-66
2023/06/22 11:39:39;;;;;;;1.25;1.15;;;;;;;31.11;55.84;99754.31;5093824;28;20123;-66
2023/06/22 11:42:15;;;;;;;1.10;1.00;;;;;;;31.27;57.47;99751.19;5098909;28;20043;-65
2023/06/22 11:44:44;;;;;;;0.70;0.70;;;;;;;31.33;57.41;99755.13;5114298;28;20044;-67
2023/06/22 11:47:14;;;;;;;;;;;;;;;31.28;57.09;99744.97;5106632;28;20035;-67
2023/06/22 11:49:43;;;;;;;1.63;0.80;;;;;;;31.44;57.13;99745.34;5093865;28;19927;-66